»·PEaware :: N2822D KOMK-KGEG

N2822D :: KOMK-KGEG

FLIGHT INFORMATION

Flight Status: Arrived
Operator: Privately registered:
United States
More flights under this callsign
Pilot: Alex C. (14758)
Aircraft: BEECH AIRCRAFT BARON
(BE58)
More flights by this aircraft type
Origin: KOMK Omak
United States
Destination: KGEG Spokane Intl
United States
More flights between these airports :: More routes between these airports
Route: +GETNG1 GETNG EPH ZOOMR1
File this flight plan on PilotEdge
Remarks:
Altitude:
(Current/Filed)
9,000ft
Speed:
(Current/Filed)
195kts
Departed: 31-Oct-18 08:44 AM
Arrived: 31-Oct-18 09:52 AM
Distance/Time
Traveled:
95nm/1:08
Distance/Time
To Go:
Arrived

Flight Plot

Page will automatically refresh every two minutes.

Flight plan parsing failed; only flown route is shown


Map Options




Map Legend


Flown Route
Filed Route
Departure Airport
Arrival Airport
Navaid (VOR, NDB)
Fix

Horizontal Profiles

Position Reports

Time Latitude Longitude Heading Altitude Ground
Speed
31-Oct-18 08:36 48.468764 -119.520048 131 1308ft 0kts
31-Oct-18 08:37 48.468764 -119.520048 131 1308ft 0kts
31-Oct-18 08:38 48.468662 -119.519878 136 1308ft 4kts
31-Oct-18 08:39 48.470820 -119.517848 74 1308ft 13kts
31-Oct-18 08:40 48.470762 -119.517287 112 1308ft 0kts
31-Oct-18 08:41 48.470762 -119.517287 112 1308ft 0kts
31-Oct-18 08:42 48.470762 -119.517287 112 1308ft 0kts
31-Oct-18 08:43 48.470762 -119.517287 112 1308ft 0kts
31-Oct-18 08:44 48.470762 -119.517287 112 1308ft 0kts
31-Oct-18 08:45 48.470686 -119.516997 110 1308ft 6kts
31-Oct-18 08:46 48.458620 -119.520006 191 1507ft 118kts
31-Oct-18 08:47 48.434490 -119.525399 187 3188ft 105kts
31-Oct-18 08:48 48.410389 -119.524554 178 4963ft 105kts
31-Oct-18 08:49 48.387837 -119.520623 183 6620ft 106kts
31-Oct-18 08:50 48.364065 -119.516532 187 8267ft 113kts
31-Oct-18 08:51 48.342216 -119.513151 187 9017ft 141kts
31-Oct-18 08:52 48.305533 -119.507005 183 9019ft 182kts
31-Oct-18 08:53 48.268463 -119.502370 185 9013ft 190kts
31-Oct-18 08:54 48.229450 -119.498832 185 9012ft 193kts
31-Oct-18 08:55 48.191762 -119.495449 185 9011ft 194kts
31-Oct-18 08:56 48.153246 -119.492011 185 9011ft 195kts
31-Oct-18 08:57 48.114829 -119.488392 186 9382ft 177kts
31-Oct-18 08:58 48.079170 -119.484988 191 10452ft 147kts
31-Oct-18 08:59 48.046512 -119.482647 190 11026ft 166kts
31-Oct-18 09:00 48.016091 -119.442315 132 11023ft 224kts
31-Oct-18 09:01 47.988005 -119.387178 131 11016ft 233kts
31-Oct-18 09:02 47.959959 -119.332249 131 11009ft 237kts
31-Oct-18 09:03 47.930935 -119.275738 128 11007ft 238kts
31-Oct-18 09:04 47.900816 -119.217506 126 11014ft 240kts
31-Oct-18 09:05 47.869801 -119.156848 127 11012ft 240kts
31-Oct-18 09:06 47.834772 -119.102279 122 11028ft 239kts
31-Oct-18 09:07 47.802944 -119.033240 132 11025ft 237kts
31-Oct-18 09:08 47.769516 -118.968737 132 11027ft 236kts
31-Oct-18 09:09 47.737300 -118.906485 132 11027ft 236kts
31-Oct-18 09:10 47.707497 -118.848841 131 11027ft 235kts
31-Oct-18 09:11 47.677382 -118.790705 131 11028ft 234kts
31-Oct-18 09:12 47.648449 -118.734888 131 11028ft 234kts
31-Oct-18 09:13 47.619190 -118.678204 131 11029ft 234kts
31-Oct-18 09:14 47.591030 -118.624509 131 11029ft 234kts
31-Oct-18 09:15 47.562942 -118.570819 131 11029ft 234kts
31-Oct-18 09:16 47.535025 -118.517458 131 11030ft 234kts
31-Oct-18 09:17 47.505605 -118.461371 131 11030ft 234kts
31-Oct-18 09:18 47.473382 -118.400066 130 11030ft 235kts
31-Oct-18 09:19 47.445123 -118.346502 131 11030ft 235kts
31-Oct-18 09:20 47.431747 -118.281884 72 11031ft 231kts
31-Oct-18 09:21 47.445459 -118.212715 67 10881ft 236kts
31-Oct-18 09:22 47.459649 -118.144778 69 10388ft 245kts
31-Oct-18 09:23 47.474666 -118.071800 70 9863ft 248kts
31-Oct-18 09:24 47.489018 -118.001760 70 9363ft 249kts
31-Oct-18 09:25 47.504568 -117.925818 71 9026ft 241kts
31-Oct-18 09:26 47.517721 -117.861035 71 9026ft 231kts
31-Oct-18 09:27 47.527932 -117.801400 83 9030ft 229kts
31-Oct-18 09:28 47.532136 -117.742421 83 9028ft 227kts
31-Oct-18 09:29 47.536370 -117.682328 83 9028ft 227kts
31-Oct-18 09:30 47.540810 -117.620417 83 8693ft 238kts
31-Oct-18 09:31 47.545577 -117.560601 83 8287ft 244kts
31-Oct-18 09:32 47.551402 -117.500187 83 7876ft 244kts
31-Oct-18 09:33 47.553165 -117.483879 83 7764ft 243kts
31-Oct-18 09:34 47.564322 -117.426348 53 7367ft 221kts
31-Oct-18 09:35 47.580872 -117.387105 47 7051ft 196kts
31-Oct-18 09:37 47.598543 -117.358607 43 7045ft 172kts
31-Oct-18 09:38 47.615638 -117.330891 43 7051ft 162kts
31-Oct-18 09:39 47.631820 -117.304453 43 7052ft 158kts
31-Oct-18 09:40 47.647607 -117.278570 43 7054ft 157kts
31-Oct-18 09:41 47.664317 -117.251311 43 6830ft 165kts
31-Oct-18 09:42 47.686493 -117.227070 24 6416ft 168kts
31-Oct-18 09:43 47.715601 -117.207996 18 6050ft 155kts
31-Oct-18 09:44 47.742769 -117.237665 314 5606ft 169kts
31-Oct-18 09:45 47.767468 -117.282542 306 5067ft 175kts
31-Oct-18 09:46 47.760412 -117.323988 225 5038ft 150kts
31-Oct-18 09:47 47.743754 -117.348643 223 4968ft 140kts
31-Oct-18 09:48 47.727652 -117.372662 224 5034ft 135kts
31-Oct-18 09:49 47.712080 -117.396168 223 4675ft 137kts
31-Oct-18 09:50 47.695857 -117.420687 223 4247ft 135kts
31-Oct-18 09:51 47.678560 -117.446842 220 3780ft 124kts
31-Oct-18 09:52 47.662887 -117.470553 220 3300ft 106kts
31-Oct-18 09:53 47.653070 -117.485323 220 3035ft 104kts
31-Oct-18 09:54 47.631759 -117.517486 221 2449ft 99kts
31-Oct-18 09:55 47.621257 -117.532543 161 2387ft 17kts
31-Oct-18 09:56 47.621287 -117.529207 115 2387ft 19kts
31-Oct-18 09:57 47.620618 -117.527019 142 2387ft 0kts

Navigation Log

Ident Type
Flight plan parsing failed, navigation log unavailable